• Join FlightAware (Why Join?)
  • Login
  • US Flag 
12:01AM EDT


 

Airport Tracker/Info


-or-


 

Live Flight TrackerFlight Track Log ✈ JST762 ✈ 23-Apr-2013 ✈ YSSY / SYD - YPAD / ADL

Flight Track Log - Related Links

Times and Time Zones

All times are in EDT time to prevent confusion due to time zone crossing. See the JST762 flight status page for this flight to view local times or setup timezone preferences in your user account.

Time Position Orientation Groundspeed Altitude Reporting Facility
EDT Latitude Longitude Course Direction KTS MPH feet Rate Location/Type
04:34PM -33.9429 151.1808 305° West 21,800  Level Aus ATC (Calculated)
04:34PM -33.9390 151.1740 347° North 149 171 800 -47,100 Descending FlightAware
04:34PM -33.9270 151.1700 345° North 149 171 1,400 1,800 Climbing FlightAware
04:34PM -33.9210 151.1620 312° West 154 177 1,700 1,200 Climbing FlightAware
04:35PM -33.9078 151.1383 312° West 168 193 2,200 1,200 Climbing Aus ATC (RADAR)
04:35PM -33.9090 151.1410 312° West 187 215 2,200 2,700 Level FlightAware
04:35PM -33.8940 151.1120 302° West 209 241 3,600 2,520 Climbing FlightAware
04:35PM -33.8880 151.1020 306° West 219 252 3,900 1,380 Climbing FlightAware
04:36PM -33.8711 151.0698 306° West 235 270 4,400 1,200 Climbing Aus ATC (RADAR)
04:36PM -33.8700 151.0670 306° West 258 297 4,500 960 Climbing FlightAware
04:36PM -33.8490 151.0290 304° West 271 312 5,000 540 Climbing FlightAware
04:37PM -33.8325 150.9934 304° West 259 298 5,000 360 Level Aus ATC (RADAR)
04:37PM -33.8320 150.9890 304° West 264 304 5,200 3,840 Climbing FlightAware
04:37PM -33.8270 150.9540 280° West 246 283 7,000 4,560 Climbing FlightAware
04:38PM -33.8200 150.9160 282° West 220 253 9,400 3,240 Climbing FlightAware
04:38PM -33.8110 150.8670 282° West 247 284 10,800 1,680 Climbing FlightAware
04:39PM -33.8026 150.8193 282° West 259 298 11,400 1,320 Climbing Aus ATC (RADAR)
04:39PM -33.7990 150.7980 282° West 308 354 11,800 2,220 Climbing FlightAware
04:40PM -33.7870 150.7300 282° West 324 373 13,500 2,460 Climbing FlightAware
04:41PM -33.7720 150.6470 282° West 336 387 15,300 2,640 Climbing FlightAware
04:41PM -33.7636 150.5978 282° West 319 367 16,600 2,520 Climbing Aus ATC (RADAR)
04:41PM -33.7600 150.5800 282° West 338 389 17,000 2,100 Climbing FlightAware
04:42PM -33.7470 150.5040 282° West 343 395 18,600 2,280 Climbing FlightAware
04:43PM -33.7320 150.4180 282° West 349 402 20,300 2,040 Climbing FlightAware
04:43PM -33.7220 150.3630 282° West 339 390 21,000 1,800 Climbing Aus ATC (RADAR)
04:43PM -33.7170 150.3340 282° West 364 419 21,500 2,220 Climbing FlightAware
04:44PM -33.7140 150.2550 273° West 360 414 23,100 2,040 Climbing FlightAware
04:45PM -33.7230 150.1660 263° West 365 420 24,400 1,920 Climbing FlightAware
04:45PM -33.7300 150.0870 264° West 355 409 25,900 1,800 Climbing FlightAware
04:46PM -33.7366 150.0049 264° West 348 400 26,800 1,440 Climbing Aus ATC (RADAR)
04:46PM -33.7370 149.9970 264° West 363 418 27,000 1,980 Climbing FlightAware
04:47PM -33.7418 149.9453 264° West 346 398 27,800 1,620 Climbing Aus ATC (RADAR)
04:47PM -33.7440 149.9170 264° West 365 420 28,100 1,200 Climbing FlightAware
04:48PM -33.7520 149.8250 264° West 372 428 29,100 1,320 Climbing FlightAware
04:48PM -33.7590 149.7430 264° West 376 433 30,000 1,200 Climbing FlightAware
04:49PM -33.7660 149.6580 264° West 383 441 30,700 1,020 Climbing FlightAware
04:50PM -33.7728 149.5833 264° West 370 426 31,300 1,020 Climbing Aus ATC (RADAR)
04:50PM -33.7750 149.5620 264° West 390 449 31,500 1,020 Climbing FlightAware
04:50PM -33.7820 149.4770 264° West 392 451 32,200 1,080 Climbing FlightAware
04:51PM -33.7880 149.3960 265° West 392 451 33,000 1,680 Climbing FlightAware
04:52PM -33.7960 149.3000 264° West 373 429 34,600 1,800 Climbing FlightAware
04:52PM -33.8003 149.2534 264° West 362 417 34,900 900 Climbing Aus ATC (RADAR)
04:52PM -33.8030 149.2160 264° West 376 433 35,200 840 Climbing FlightAware
04:53PM -33.8100 149.1260 265° West 375 432 35,900 600 Climbing FlightAware
04:54PM -33.8168 149.0458 265° West 369 425 36,000 120 Climbing Aus ATC (RADAR)
04:54PM -33.8170 149.0410 265° West 380 437 36,000  Level FlightAware
04:55PM -33.8240 148.9560 264° West 381 438 36,000  Level FlightAware
04:55PM -33.8319 148.8562 264° West 373 429 36,000  Level Aus ATC (RADAR)
04:55PM -33.8310 148.8590 264° West 384 442 36,000  Level FlightAware
04:56PM -33.8380 148.7740 264° West 384 442 36,000  Level FlightAware
04:57PM -33.8514 148.6227 264° West 376 433 36,000  Level Aus ATC (RADAR)
04:59PM -33.8830 148.4330 264° West 382 440 36,000  Level FlightAware
04:59PM -33.8970 148.3510 258° West 383 441 36,000  Level FlightAware
05:01PM -33.9399 148.0877 258° West 379 436 36,000  Level Aus ATC (RADAR)
05:02PM -33.9401 148.1043 258° West  Level FlightAware Approximate
05:02PM -33.9470 148.0450 259° West 382 440 36,000  Level Aus ATC (RADAR)
05:02PM -33.9606 147.9606 259° West 379 436 36,100  Climbing Aus ATC (RADAR)
05:03PM -33.9778 147.8542 259° West 381 438 36,000 -120 Descending Aus ATC (RADAR)
05:04PM -33.9870 147.7970 259° West 388 447 36,000  Level FlightAware
05:04PM -33.9897 147.7799 259° West 383 441 36,000  Level Aus ATC (RADAR)
05:05PM -34.0181 147.5992 259° West 382 440 36,000  Level Aus ATC (RADAR)
05:05PM -34.0233 147.5674 259° West 382 440 36,000  Level Aus ATC (RADAR)
05:06PM -34.0386 147.4715 259° West 381 438 36,000 60 Level Aus ATC (RADAR)
05:07PM -34.0499 147.3976 259° West 380 437 36,100  Climbing Aus ATC (RADAR)
05:08PM -34.0682 147.2818 259° West 377 434 36,000 -120 Descending Aus ATC (RADAR)
05:08PM -34.0744 147.2396 260° West 378 435 36,000  Level Aus ATC (RADAR)
05:08PM -34.0840 147.1771 260° West 374 430 36,000  Level Aus ATC (RADAR)
05:09PM -34.1032 147.0522 259° West 374 430 36,000  Level Aus ATC (RADAR)
05:10PM -34.1070 147.0260 259° West 380 437 36,000  Level FlightAware
05:10PM -34.1180 146.9584 259° West 375 432 36,000  Level Aus ATC (RADAR)
05:11PM -34.1310 146.8690 259° West 381 438 36,000  Level FlightAware
05:11PM -34.1338 146.8543 259° West 374 430 36,000  Level Aus ATC (RADAR)
05:12PM -34.1451 146.7812 259° West 373 429 36,000  Level Aus ATC (RADAR)
05:12PM -34.1530 146.7230 259° West 380 437 36,000  Level FlightAware
05:13PM -34.1618 146.6663 259° West 375 432 36,000  Level Aus ATC (RADAR)
05:13PM -34.1664 146.6350 260° West 375 432 36,000  Level Aus ATC (RADAR)
05:13PM -34.1710 146.5990 260° West 382 440 36,000  Level FlightAware
05:14PM -34.1928 146.4571 260° West 376 433 36,000  Level Aus ATC (RADAR)
05:15PM -34.1980 146.4200 260° West 380 437 36,000  Level FlightAware
05:16PM -34.2190 146.2730 260° West 381 438 36,000  Level FlightAware
05:16PM -34.2342 146.1750 260° West 377 434 36,000  Level Aus ATC (RADAR)
05:17PM -34.2410 146.1270 260° West 382 440 36,000 60 Level FlightAware
05:17PM -34.2506 146.0595 260° West 379 436 36,100  Climbing Aus ATC (RADAR)
05:18PM -34.2610 145.9770 260° West 381 438 36,000 -120 Descending FlightAware
05:19PM -34.2726 145.8810 260° West 377 434 36,000  Level Aus ATC (RADAR)
05:19PM -34.2810 145.8090 260° West 382 440 36,000  Level FlightAware
05:20PM -34.2899 145.7436 260° West 378 435 36,000  Level Aus ATC (RADAR)
05:20PM -34.2986 145.6693 262° West 379 436 36,000  Level Aus ATC (RADAR)
05:21PM -34.3010 145.6500 262° West 385 443 36,000 120 Level FlightAware
05:21PM -34.3102 145.5735 262° West 380 437 36,100  Climbing Aus ATC (RADAR)
05:21PM -34.3110 145.5620 262° West 383 441 36,000 -120 Descending FlightAware
05:22PM -34.3220 145.4780 261° West 383 441 36,000  Level FlightAware
05:23PM -34.3330 145.3820 262° West 384 442 36,000  Level FlightAware
05:23PM -34.3430 145.2960 262° West 385 443 36,000  Level FlightAware
05:24PM -34.3540 145.2000 262° West 386 444 36,000  Level FlightAware
05:25PM -34.3608 145.1485 262° West 380 437 36,000  Level Aus ATC (RADAR)
05:25PM -34.3640 145.1150 262° West 386 444 36,000  Level FlightAware
05:26PM -34.3730 145.0380 262° West 387 445 36,000  Level FlightAware
05:26PM -34.3820 144.9663 262° West 384 442 36,000  Level Aus ATC (RADAR)
05:27PM -34.3930 144.8699 262° West 384 442 36,000  Level Aus ATC (RADAR)
05:27PM -34.3976 144.8268 263° West 384 442 36,000  Level Aus ATC (RADAR)
05:28PM -34.4051 144.7620 262° West 385 443 36,000  Level Aus ATC (RADAR)
05:28PM -34.4171 144.6536 262° West 388 447 36,000  Level Aus ATC (RADAR)
05:29PM -34.4263 144.5775 262° West 388 447 36,000  Level Aus ATC (RADAR)
05:30PM -34.4421 144.4351 262° West 392 451 36,000  Level Aus ATC (RADAR)
05:30PM -34.4450 144.4040 262° West 397 457 36,000  Level FlightAware
05:31PM -34.4539 144.3253 262° West 392 451 36,000  Level Aus ATC (RADAR)
05:31PM -34.4610 144.2600 262° West 397 457 36,000 60 Level FlightAware
05:32PM -34.4735 144.1487 262° West 395 455 36,100  Climbing Aus ATC (RADAR)
05:33PM -34.4780 144.1060 262° West 397 457 36,000  Descending FlightAware
05:33PM -34.4867 144.0281 262° West 393 452 36,100 120 Climbing Aus ATC (RADAR)
05:33PM -34.4902 143.9953 263° West 391 450 36,100 -180 Level Aus ATC (RADAR)
05:34PM -34.4940 143.9520 263° West 398 458 36,000  Descending FlightAware
05:35PM -34.5106 143.7966 263° West 394 453 36,100  Climbing Aus ATC (RADAR)
05:35PM -34.5140 143.7650 263° West 399 459 36,000  Descending FlightAware
05:36PM -34.5286 143.6299 263° West 399 459 36,100  Climbing Aus ATC (RADAR)
05:36PM -34.5300 143.6100 263° West 404 465 36,000  Descending FlightAware
05:37PM -34.5396 143.5195 263° West 395 455 36,100  Climbing Aus ATC (RADAR)
05:38PM -34.5460 143.4520 263° West 405 466 36,000 60 Descending FlightAware
05:38PM -34.5536 143.3845 263° West 401 461 36,200 180 Climbing Aus ATC (RADAR)
05:39PM -34.5616 143.3066 263° West 399 459 36,200 -300 Level Aus ATC (RADAR)
05:39PM -34.5630 143.2950 263° West 402 463 36,000 -120 Descending FlightAware
05:39PM -34.5743 143.1835 263° West 400 460 36,100  Climbing Aus ATC (RADAR)
05:40PM -34.5790 143.1360 263° West 402 463 36,000 -120 Descending FlightAware
05:41PM -34.5940 142.9800 263° West 404 465 36,000 60 Level FlightAware
05:41PM -34.5996 142.9256 263° West 402 463 36,100 60 Climbing Aus ATC (RADAR)
05:42PM -34.6076 142.8468 263° West 402 463 36,100 -120 Level Aus ATC (RADAR)
05:42PM -34.6130 142.7880 263° West 407 468 36,000  Descending FlightAware
05:43PM -34.6205 142.7109 263° West 404 465 36,100 60 Climbing Aus ATC (RADAR)
05:44PM -34.6283 142.6312 263° West 406 467 36,100  Level Aus ATC (RADAR)
05:45PM -34.6410 142.4710 264° West 409 471 36,100 -120 Level Aus ATC (RADAR)
05:45PM -34.6420 142.4580 264° West 410 472 36,000 -120 Descending FlightAware
05:46PM -34.6480 142.3300 267° West 410 472 36,000 60 Level FlightAware
05:46PM -34.6514 142.2650 267° West 406 467 36,100 60 Climbing Aus ATC (RADAR)
05:47PM -34.6561 142.1844 266° West 409 471 36,100  Level Aus ATC (RADAR)
05:47PM -34.6578 142.1501 267° West 408 470 36,100 -240 Level Aus ATC (RADAR)
05:47PM -34.6580 142.1370 267° West 410 472 36,000  Descending FlightAware
05:48PM -34.6625 142.0698 267° West 407 468 36,100  Climbing Aus ATC (RADAR)
05:48PM -34.6670 141.9750 267° West 411 473 36,000  Descending FlightAware
05:49PM -34.6705 141.9204 267° West 409 471 36,100  Climbing Aus ATC (RADAR)
05:49PM -34.6730 141.8660 266° West 411 473 36,000  Descending FlightAware
05:49PM -34.6748 141.8400 266° West 409 471 36,100  Climbing Aus ATC (RADAR)
05:50PM -34.6790 141.7480 266° West 410 472 36,000 -120 Descending FlightAware
05:51PM -34.6850 141.6260 267° West 409 471 36,000  Level FlightAware
05:52PM -34.6910 141.5200 266° West 409 471 36,000 60 Level FlightAware
05:52PM -34.6959 141.4167 266° West 407 468 36,100  Climbing Aus ATC (RADAR)
05:53PM -34.6970 141.3950 266° West 408 470 36,000 -120 Descending FlightAware
05:53PM -34.7010 141.3030 266° West 409 471 36,000 120 Level FlightAware
05:53PM -34.7020 141.2907 266° West 406 467 36,100  Climbing Aus ATC (RADAR)
05:54PM -34.7060 141.2060 266° West 410 472 36,000 -120 Descending FlightAware
05:55PM -34.7100 141.1120 267° West 409 471 36,000 60 Level FlightAware
05:55PM -34.7135 141.0503 267° West 406 467 36,100  Climbing Aus ATC (RADAR)
05:55PM -34.7140 141.0270 267° West 409 471 36,000  Descending FlightAware
05:56PM -34.7191 140.9132 267° West 405 466 36,100  Climbing Aus ATC (RADAR)
05:56PM -34.7190 140.9260 267° West 408 470 36,000  Descending FlightAware
05:57PM -34.7236 140.8220 267° West 405 466 36,100  Climbing Aus ATC (RADAR)
05:57PM -34.7230 140.8280 267° West 408 470 36,000 -420 Descending FlightAware
05:57PM -34.7270 140.7380 267° West 408 470 35,800 -1,920 Descending FlightAware
05:58PM -34.7320 140.6080 267° West 416 479 33,000 -2,940 Descending FlightAware
05:59PM -34.7356 140.4976 267° West 419 482 31,100 -2,400 Descending Aus ATC (RADAR)
05:59PM -34.7360 140.5100 267° West 415 478 31,200 -1,860 Climbing FlightAware
06:00PM -34.7400 140.4290 267° West 406 467 29,900 -1,980 Descending FlightAware
06:00PM -34.7418 140.3839 267° West 405 466 29,400 -2,340 Descending Aus ATC (RADAR)
06:01PM -34.7450 140.2870 267° West 394 453 27,600 -2,040 Descending FlightAware
06:01PM -34.7465 140.2518 267° West 391 450 27,200 -1,980 Descending Aus ATC (RADAR)
06:01PM -34.7490 140.2060 267° West 381 438 26,300 -2,940 Descending FlightAware
06:02PM -34.7511 140.1343 267° West 382 440 25,100 -2,280 Descending Aus ATC (RADAR)
06:03PM -34.7555 140.0206 267° West 368 423 23,300 -2,100 Descending Aus ATC (RADAR)
06:03PM -34.7593 139.9194 267° West 361 415 21,600 -1,800 Descending Aus ATC (RADAR)
06:04PM -34.7599 139.8897 269° West 357 411 21,000 -2,160 Descending Aus ATC (RADAR)
06:04PM -34.7610 139.8640 269° West 350 403 20,400 -2,520 Descending FlightAware
06:05PM -34.7640 139.7810 267° West 345 397 18,900 -2,100 Descending FlightAware
06:05PM -34.7670 139.7000 267° West 340 391 17,500 -2,220 Descending FlightAware
06:06PM -34.7694 139.6207 267° West 337 388 16,100 -2,340 Descending Aus ATC (RADAR)
06:07PM -34.7715 139.5549 268° West 336 387 14,800 -2,160 Descending Aus ATC (RADAR)
06:07PM -34.7726 139.5265 267° West 336 387 14,300 -1,920 Descending Aus ATC (RADAR)
06:07PM -34.7749 139.4618 267° West 331 381 13,200 -2,100 Descending Aus ATC (RADAR)
06:08PM -34.7783 139.3613 268° West 328 377 11,200 -1,860 Descending Aus ATC (RADAR)
06:09PM -34.7796 139.2981 269° West 320 368 10,500 -1,020 Descending Aus ATC (RADAR)
06:10PM -34.7810 139.2330 269° West 281 323 9,900 -960 Descending FlightAware
06:10PM -34.7820 139.2020 268° West 276 318 9,500 -1,500 Descending FlightAware
06:10PM -34.7820 139.1720 270° West 275 316 8,900 -1,680 Descending FlightAware
06:11PM -34.7840 139.1250 267° West 275 316 8,100 -1,620 Descending FlightAware
06:11PM -34.7861 139.0932 267° West 275 316 7,700 -1,620 Descending Aus ATC (RADAR)
06:11PM -34.7870 139.0780 267° West 271 312 7,300 -1,500 Descending FlightAware
06:12PM -34.7890 139.0400 266° West 267 307 6,700 -1,800 Descending FlightAware
06:12PM -34.7909 139.0101 266° West 270 311 6,100 -1,800 Descending Aus ATC (RADAR)
06:12PM -34.7920 138.9940 266° West 273 314 5,800 -1,200 Descending FlightAware
06:13PM -34.7940 138.9571 266° West 270 311 5,400 -1,200 Descending Aus ATC (RADAR)
06:13PM -34.7940 138.9580 266° West 263 303 5,300 -900 Descending FlightAware
06:13PM -34.7960 138.9150 267° West 255 293 4,900 -360 Descending FlightAware
06:14PM -34.7981 138.8779 267° West 258 297 5,000 -420 Climbing Aus ATC (RADAR)
06:14PM -34.7980 138.8700 267° West 258 297 4,700 -1,080 Descending FlightAware
06:14PM -34.8000 138.8360 266° West 246 283 4,400 -780 Descending FlightAware
06:15PM -34.8020 138.7950 267° West 231 266 4,000 -780 Descending FlightAware
06:15PM -34.8080 138.7650 256° West 217 250 3,700 -780 Descending FlightAware
06:16PM -34.8250 138.7360 234° Southwest 205 236 3,300 -780 Descending FlightAware
06:16PM -34.8380 138.7130 235° Southwest 191 220 3,000 -480 Descending FlightAware
06:16PM -34.8520 138.6880 236° Southwest 176 203 2,900 -720 Descending FlightAware
06:17PM -34.8670 138.6630 234° Southwest 165 190 2,300 -960 Descending FlightAware
06:17PM -34.8775 138.6451 234° Southwest 162 186 2,100 -720 Descending Aus ATC (RADAR)
06:17PM -34.8770 138.6450 234° Southwest 147 169 2,000 -900 Descending FlightAware
06:18PM -34.8890 138.6250 234° Southwest 129 148 1,600 -720 Descending FlightAware
06:18PM -34.8990 138.6080 234° Southwest 126 145 1,300 -660 Descending FlightAware
06:19PM -34.9080 138.5920 236° Southwest 124 143 1,000 -780 Descending FlightAware
06:19PM -34.9180 138.5750 234° Southwest 123 142 600 -540 Descending FlightAware
06:20PM -34.9259 138.5643 234° Southwest 128 147 600 -720 Level Aus ATC (RADAR)
06:20PM -34.9280 138.5610 234° Southwest 124 143 300 -2,040 Descending FlightAware
06:20PM -34.9400 138.5440 229° Southwest 133 153 -600 Descending FlightAware
06:21PM -34.9480 138.5330 228° Southwest 92 106  Level FlightAware